sensor_id;sensor_type;location;lat;lon;timestamp;pressure;altitude;pressure_sealevel;temperature;humidity
64841;BME280;51307;52.162;7.560;2024-03-23T00:55:16;100440.13;;;7.96;82.30
64841;BME280;51307;52.162;7.560;2024-03-23T00:57:42;100428.25;;;7.72;81.82
64841;BME280;51307;52.162;7.560;2024-03-23T01:00:07;100416.47;;;7.75;82.90
64841;BME280;51307;52.162;7.560;2024-03-23T01:02:35;100413.41;;;7.70;83.27
64841;BME280;51307;52.162;7.560;2024-03-23T01:05:01;100414.47;;;7.59;83.22
64841;BME280;51307;52.162;7.560;2024-03-23T01:07:26;100405.03;;;7.19;85.54
64841;BME280;51307;52.162;7.560;2024-03-23T01:09:52;100415.63;;;7.93;82.91
64841;BME280;51307;52.162;7.560;2024-03-23T01:12:18;100417.63;;;7.17;86.25
64841;BME280;51307;52.162;7.560;2024-03-23T01:14:44;100406.97;;;7.45;84.72
64841;BME280;51307;52.162;7.560;2024-03-23T01:17:09;100408.03;;;7.34;85.33
64841;BME280;51307;52.162;7.560;2024-03-23T01:19:35;100416.16;;;7.60;84.86
64841;BME280;51307;52.162;7.560;2024-03-23T01:22:01;100415.88;;;7.07;87.27
64841;BME280;51307;52.162;7.560;2024-03-23T01:24:26;100417.19;;;7.49;85.36
64841;BME280;51307;52.162;7.560;2024-03-23T01:26:52;100422.28;;;7.43;85.18
64841;BME280;51307;52.162;7.560;2024-03-23T01:29:17;100416.75;;;7.26;85.30
64841;BME280;51307;52.162;7.560;2024-03-23T01:31:43;100414.13;;;7.44;84.82
64841;BME280;51307;52.162;7.560;2024-03-23T01:34:08;100406.81;;;7.46;83.45
64841;BME280;51307;52.162;7.560;2024-03-23T01:36:33;100405.38;;;7.52;83.20
64841;BME280;51307;52.162;7.560;2024-03-23T01:38:59;100399.78;;;7.55;82.14
64841;BME280;51307;52.162;7.560;2024-03-23T01:41:24;100386.16;;;7.40;82.46
64841;BME280;51307;52.162;7.560;2024-03-23T01:43:50;100383.72;;;7.47;81.52
64841;BME280;51307;52.162;7.560;2024-03-23T01:46:16;100383.88;;;7.17;83.09
64841;BME280;51307;52.162;7.560;2024-03-23T01:48:42;100385.13;;;7.23;82.34
64841;BME280;51307;52.162;7.560;2024-03-23T01:51:08;100384.63;;;7.10;84.38
64841;BME280;51307;52.162;7.560;2024-03-23T01:53:33;100381.00;;;7.56;81.67
64841;BME280;51307;52.162;7.560;2024-03-23T01:55:59;100383.09;;;7.35;83.00
64841;BME280;51307;52.162;7.560;2024-03-23T01:58:25;100372.19;;;7.28;82.73
64841;BME280;51307;52.162;7.560;2024-03-23T02:00:50;100361.56;;;7.00;83.08
64841;BME280;51307;52.162;7.560;2024-03-23T02:03:25;100362.88;;;7.14;83.13
64841;BME280;51307;52.162;7.560;2024-03-23T02:05:52;100362.22;;;7.30;81.84
64841;BME280;51307;52.162;7.560;2024-03-23T02:08:20;100365.94;;;6.82;85.24
64841;BME280;51307;52.162;7.560;2024-03-23T02:10:47;100366.25;;;7.34;83.27
64841;BME280;51307;52.162;7.560;2024-03-23T02:13:14;100360.34;;;7.40;82.70
64841;BME280;51307;52.162;7.560;2024-03-23T02:15:39;100361.91;;;6.78;84.30
64841;BME280;51307;52.162;7.560;2024-03-23T02:18:06;100366.44;;;6.57;84.20
64841;BME280;51307;52.162;7.560;2024-03-23T02:20:32;100362.03;;;6.96;83.33
64841;BME280;51307;52.162;7.560;2024-03-23T02:22:57;100357.97;;;6.82;84.89
64841;BME280;51307;52.162;7.560;2024-03-23T02:25:23;100351.97;;;6.80;84.90
64841;BME280;51307;52.162;7.560;2024-03-23T02:27:48;100351.81;;;7.37;81.89
64841;BME280;51307;52.162;7.560;2024-03-23T02:30:14;100351.50;;;7.22;81.80
64841;BME280;51307;52.162;7.560;2024-03-23T02:32:40;100351.81;;;7.19;82.56
64841;BME280;51307;52.162;7.560;2024-03-23T02:35:06;100342.38;;;7.06;82.16
64841;BME280;51307;52.162;7.560;2024-03-23T02:37:31;100341.84;;;6.93;83.68
64841;BME280;51307;52.162;7.560;2024-03-23T02:39:58;100351.97;;;7.35;82.33
64841;BME280;51307;52.162;7.560;2024-03-23T02:42:23;100354.88;;;6.86;83.44
64841;BME280;51307;52.162;7.560;2024-03-23T02:44:49;100348.41;;;6.99;84.42
64841;BME280;51307;52.162;7.560;2024-03-23T02:47:14;100344.88;;;7.08;84.33
64841;BME280;51307;52.162;7.560;2024-03-23T02:49:40;100342.00;;;6.54;86.08
64841;BME280;51307;52.162;7.560;2024-03-23T02:52:05;100339.16;;;6.65;85.54
64841;BME280;51307;52.162;7.560;2024-03-23T02:54:31;100323.75;;;7.06;84.22
64841;BME280;51307;52.162;7.560;2024-03-23T02:56:56;100326.16;;;6.90;84.89
64841;BME280;51307;52.162;7.560;2024-03-23T02:59:22;100331.91;;;6.95;84.20
64841;BME280;51307;52.162;7.560;2024-03-23T03:01:47;100322.84;;;7.34;83.23
64841;BME280;51307;52.162;7.560;2024-03-23T03:04:13;100307.03;;;7.32;83.86
64841;BME280;51307;52.162;7.560;2024-03-23T03:06:38;100317.53;;;7.34;84.17
64841;BME280;51307;52.162;7.560;2024-03-23T03:09:03;100333.91;;;6.83;85.50
64841;BME280;51307;52.162;7.560;2024-03-23T03:11:29;100337.44;;;7.12;85.59
64841;BME280;51307;52.162;7.560;2024-03-23T03:13:55;100327.69;;;7.02;85.95
64841;BME280;51307;52.162;7.560;2024-03-23T03:16:20;100327.78;;;7.11;85.61
64841;BME280;51307;52.162;7.560;2024-03-23T03:18:46;100321.19;;;7.33;85.39
64841;BME280;51307;52.162;7.560;2024-03-23T03:21:12;100308.53;;;7.17;85.27
64841;BME280;51307;52.162;7.560;2024-03-23T03:23:38;100314.63;;;7.45;84.56
64841;BME280;51307;52.162;7.560;2024-03-23T03:26:07;100303.69;;;7.12;86.23
64841;BME280;51307;52.162;7.560;2024-03-23T03:28:34;100303.56;;;7.50;84.80
64841;BME280;51307;52.162;7.560;2024-03-23T03:31:00;100314.88;;;7.52;84.30
64841;BME280;51307;52.162;7.560;2024-03-23T03:33:29;100310.75;;;7.39;85.33
64841;BME280;51307;52.162;7.560;2024-03-23T03:35:55;100300.50;;;7.45;84.92
64841;BME280;51307;52.162;7.560;2024-03-23T03:38:20;100308.84;;;7.32;85.92
64841;BME280;51307;52.162;7.560;2024-03-23T03:40:46;100313.66;;;7.28;86.37
64841;BME280;51307;52.162;7.560;2024-03-23T03:43:12;100316.84;;;7.32;86.66
64841;BME280;51307;52.162;7.560;2024-03-23T03:45:38;100289.63;;;7.38;86.48
64841;BME280;51307;52.162;7.560;2024-03-23T03:48:04;100279.38;;;7.43;86.63
64841;BME280;51307;52.162;7.560;2024-03-23T03:50:29;100292.28;;;7.74;84.82
64841;BME280;51307;52.162;7.560;2024-03-23T03:52:55;100291.13;;;7.77;84.72
64841;BME280;51307;52.162;7.560;2024-03-23T03:55:21;100291.81;;;7.24;86.47
64841;BME280;51307;52.162;7.560;2024-03-23T03:57:46;100291.53;;;7.46;86.34
64841;BME280;51307;52.162;7.560;2024-03-23T04:00:12;100294.44;;;7.52;85.71
64841;BME280;51307;52.162;7.560;2024-03-23T04:02:38;100294.56;;;7.15;88.53
64841;BME280;51307;52.162;7.560;2024-03-23T04:05:04;100297.44;;;6.94;90.36
64841;BME280;51307;52.162;7.560;2024-03-23T04:07:30;100292.56;;;6.99;90.66
64841;BME280;51307;52.162;7.560;2024-03-23T04:09:56;100293.97;;;6.93;89.95
64841;BME280;51307;52.162;7.560;2024-03-23T04:12:23;100290.22;;;7.14;89.42
64841;BME280;51307;52.162;7.560;2024-03-23T04:14:48;100292.00;;;6.95;90.54
64841;BME280;51307;52.162;7.560;2024-03-23T04:17:14;100291.50;;;7.10;90.42
64841;BME280;51307;52.162;7.560;2024-03-23T04:19:39;100293.03;;;6.56;92.93
64841;BME280;51307;52.162;7.560;2024-03-23T04:22:05;100295.91;;;6.35;94.06
64841;BME280;51307;52.162;7.560;2024-03-23T04:24:30;100295.22;;;6.99;90.04
64841;BME280;51307;52.162;7.560;2024-03-23T04:26:56;100289.28;;;6.77;90.91
64841;BME280;51307;52.162;7.560;2024-03-23T04:29:21;100288.25;;;6.60;92.28
64841;BME280;51307;52.162;7.560;2024-03-23T04:31:47;100283.09;;;6.86;91.03
64841;BME280;51307;52.162;7.560;2024-03-23T04:34:13;100285.22;;;7.11;89.45
64841;BME280;51307;52.162;7.560;2024-03-23T04:36:39;100287.97;;;6.63;91.77
64841;BME280;51307;52.162;7.560;2024-03-23T04:39:05;100281.28;;;6.49;91.29
64841;BME280;51307;52.162;7.560;2024-03-23T04:41:34;100282.06;;;6.32;93.28
64841;BME280;51307;52.162;7.560;2024-03-23T04:43:59;100283.72;;;6.70;91.36
64841;BME280;51307;52.162;7.560;2024-03-23T04:46:25;100282.91;;;6.32;92.83
64841;BME280;51307;52.162;7.560;2024-03-23T04:48:50;100279.75;;;6.09;94.13
64841;BME280;51307;52.162;7.560;2024-03-23T04:51:23;100272.03;;;6.53;90.48
64841;BME280;51307;52.162;7.560;2024-03-23T04:53:49;100274.28;;;6.48;89.84
64841;BME280;51307;52.162;7.560;2024-03-23T04:56:15;100275.78;;;6.33;91.53
64841;BME280;51307;52.162;7.560;2024-03-23T04:58:41;100277.13;;;6.74;88.28
64841;BME280;51307;52.162;7.560;2024-03-23T05:01:06;100271.88;;;6.55;88.92
64841;BME280;51307;52.162;7.560;2024-03-23T05:03:32;100268.25;;;6.28;91.38
64841;BME280;51307;52.162;7.560;2024-03-23T05:05:57;100266.88;;;6.52;90.41
64841;BME280;51307;52.162;7.560;2024-03-23T05:08:23;100270.50;;;6.51;90.04
64841;BME280;51307;52.162;7.560;2024-03-23T05:10:49;100269.75;;;6.96;87.62
64841;BME280;51307;52.162;7.560;2024-03-23T05:13:14;100270.25;;;6.54;90.54
64841;BME280;51307;52.162;7.560;2024-03-23T05:15:40;100263.50;;;6.60;89.51
64841;BME280;51307;52.162;7.560;2024-03-23T05:18:05;100276.31;;;6.36;89.86
64841;BME280;51307;52.162;7.560;2024-03-23T05:20:31;100285.78;;;6.49;90.96
64841;BME280;51307;52.162;7.560;2024-03-23T05:22:57;100274.34;;;6.38;90.52
64841;BME280;51307;52.162;7.560;2024-03-23T05:25:23;100278.81;;;6.76;88.26
64841;BME280;51307;52.162;7.560;2024-03-23T05:27:48;100277.66;;;6.13;90.50
64841;BME280;51307;52.162;7.560;2024-03-23T05:30:14;100275.22;;;6.29;90.36
64841;BME280;51307;52.162;7.560;2024-03-23T05:32:40;100268.97;;;6.20;89.59
64841;BME280;51307;52.162;7.560;2024-03-23T05:35:10;100280.34;;;6.03;90.74
64841;BME280;51307;52.162;7.560;2024-03-23T05:37:35;100277.00;;;6.38;89.67
64841;BME280;51307;52.162;7.560;2024-03-23T05:40:02;100273.50;;;6.38;89.77
64841;BME280;51307;52.162;7.560;2024-03-23T05:42:29;100272.50;;;6.01;91.43
64841;BME280;51307;52.162;7.560;2024-03-23T05:44:55;100271.31;;;6.23;90.20
64841;BME280;51307;52.162;7.560;2024-03-23T05:47:20;100277.34;;;6.16;89.51
64841;BME280;51307;52.162;7.560;2024-03-23T05:49:46;100275.28;;;6.10;90.49
64841;BME280;51307;52.162;7.560;2024-03-23T05:52:13;100275.91;;;5.84;91.75
64841;BME280;51307;52.162;7.560;2024-03-23T05:54:39;100277.16;;;5.80;92.12
64841;BME280;51307;52.162;7.560;2024-03-23T05:57:04;100277.94;;;6.10;90.42
64841;BME280;51307;52.162;7.560;2024-03-23T05:59:33;100273.63;;;5.99;92.73
64841;BME280;51307;52.162;7.560;2024-03-23T06:01:58;100277.94;;;6.10;90.70
64841;BME280;51307;52.162;7.560;2024-03-23T06:04:24;100282.88;;;5.75;91.77
64841;BME280;51307;52.162;7.560;2024-03-23T06:06:50;100277.22;;;6.17;90.43
64841;BME280;51307;52.162;7.560;2024-03-23T06:09:15;100271.28;;;6.33;90.38
64841;BME280;51307;52.162;7.560;2024-03-23T06:11:40;100276.72;;;5.84;92.29
64841;BME280;51307;52.162;7.560;2024-03-23T06:14:06;100276.03;;;5.92;91.42
64841;BME280;51307;52.162;7.560;2024-03-23T06:16:31;100284.28;;;5.50;93.72
64841;BME280;51307;52.162;7.560;2024-03-23T06:18:57;100284.94;;;6.01;92.24
64841;BME280;51307;52.162;7.560;2024-03-23T06:21:24;100284.81;;;5.93;91.75
64841;BME280;51307;52.162;7.560;2024-03-23T06:23:53;100275.78;;;6.33;90.59
64841;BME280;51307;52.162;7.560;2024-03-23T06:26:19;100285.47;;;6.52;89.07
64841;BME280;51307;52.162;7.560;2024-03-23T06:28:46;100281.34;;;5.92;91.48
64841;BME280;51307;52.162;7.560;2024-03-23T06:31:12;100280.00;;;6.26;88.92
64841;BME280;51307;52.162;7.560;2024-03-23T06:33:37;100283.66;;;6.05;91.09
64841;BME280;51307;52.162;7.560;2024-03-23T06:36:09;100288.19;;;5.85;90.83
64841;BME280;51307;52.162;7.560;2024-03-23T06:38:35;100281.50;;;5.61;92.59
64841;BME280;51307;52.162;7.560;2024-03-23T06:41:04;100282.69;;;6.06;92.34
64841;BME280;51307;52.162;7.560;2024-03-23T06:43:29;100277.34;;;6.16;90.00
64841;BME280;51307;52.162;7.560;2024-03-23T06:45:56;100285.41;;;5.67;92.51
64841;BME280;51307;52.162;7.560;2024-03-23T06:48:21;100281.38;;;6.20;91.57
64841;BME280;51307;52.162;7.560;2024-03-23T06:50:47;100283.13;;;5.92;92.78
64841;BME280;51307;52.162;7.560;2024-03-23T06:53:14;100285.44;;;6.24;90.71
64841;BME280;51307;52.162;7.560;2024-03-23T06:55:40;100281.41;;;6.57;89.09
64841;BME280;51307;52.162;7.560;2024-03-23T06:58:05;100292.63;;;5.94;90.67
64841;BME280;51307;52.162;7.560;2024-03-23T07:00:31;100288.19;;;6.42;89.17
64841;BME280;51307;52.162;7.560;2024-03-23T07:02:58;100289.00;;;6.52;88.76
64841;BME280;51307;52.162;7.560;2024-03-23T07:05:23;100287.06;;;6.45;89.18
64841;BME280;51307;52.162;7.560;2024-03-23T07:07:49;100290.41;;;5.99;90.71
64841;BME280;51307;52.162;7.560;2024-03-23T07:10:15;100285.00;;;6.66;87.98
64841;BME280;51307;52.162;7.560;2024-03-23T07:12:40;100289.06;;;6.33;87.98
64841;BME280;51307;52.162;7.560;2024-03-23T07:15:06;100288.22;;;6.32;88.88
64841;BME280;51307;52.162;7.560;2024-03-23T07:17:33;100296.81;;;6.54;87.98
64841;BME280;51307;52.162;7.560;2024-03-23T07:20:01;100282.66;;;6.53;86.56
64841;BME280;51307;52.162;7.560;2024-03-23T07:22:30;100295.63;;;6.66;85.56
64841;BME280;51307;52.162;7.560;2024-03-23T07:24:55;100275.81;;;6.51;85.03
64841;BME280;51307;52.162;7.560;2024-03-23T07:27:21;100278.97;;;6.74;84.49
64841;BME280;51307;52.162;7.560;2024-03-23T07:29:46;100274.44;;;6.56;85.56
64841;BME280;51307;52.162;7.560;2024-03-23T07:32:12;100270.13;;;6.46;84.65
64841;BME280;51307;52.162;7.560;2024-03-23T07:34:37;100278.44;;;6.88;82.96
64841;BME280;51307;52.162;7.560;2024-03-23T07:37:03;100276.25;;;6.84;83.67
64841;BME280;51307;52.162;7.560;2024-03-23T07:39:28;100284.16;;;6.66;83.56
64841;BME280;51307;52.162;7.560;2024-03-23T07:41:54;100285.53;;;7.07;82.47
64841;BME280;51307;52.162;7.560;2024-03-23T07:44:19;100294.84;;;6.84;81.60
64841;BME280;51307;52.162;7.560;2024-03-23T07:46:45;100290.41;;;6.74;82.26
64841;BME280;51307;52.162;7.560;2024-03-23T07:49:10;100282.06;;;6.97;81.55
64841;BME280;51307;52.162;7.560;2024-03-23T07:51:36;100287.53;;;6.96;80.77
64841;BME280;51307;52.162;7.560;2024-03-23T07:54:01;100276.91;;;6.86;81.39
64841;BME280;51307;52.162;7.560;2024-03-23T07:56:26;100286.38;;;6.70;81.62
64841;BME280;51307;52.162;7.560;2024-03-23T07:58:52;100275.66;;;6.62;79.78
64841;BME280;51307;52.162;7.560;2024-03-23T08:01:17;100281.06;;;6.70;80.47
64841;BME280;51307;52.162;7.560;2024-03-23T08:03:44;100278.06;;;6.83;80.08
64841;BME280;51307;52.162;7.560;2024-03-23T08:06:13;100280.50;;;6.77;79.56
64841;BME280;51307;52.162;7.560;2024-03-23T08:08:40;100277.97;;;7.03;79.07
64841;BME280;51307;52.162;7.560;2024-03-23T08:11:06;100268.84;;;6.78;79.71
64841;BME280;51307;52.162;7.560;2024-03-23T08:13:33;100267.72;;;6.80;80.00
64841;BME280;51307;52.162;7.560;2024-03-23T08:16:00;100270.00;;;7.21;78.59
64841;BME280;51307;52.162;7.560;2024-03-23T08:18:26;100278.44;;;7.16;77.58
64841;BME280;51307;52.162;7.560;2024-03-23T08:20:56;100263.44;;;6.97;77.97
64841;BME280;51307;52.162;7.560;2024-03-23T08:23:23;100272.44;;;6.58;78.12
64841;BME280;51307;52.162;7.560;2024-03-23T08:25:48;100273.66;;;6.92;75.61
64841;BME280;51307;52.162;7.560;2024-03-23T08:28:13;100270.47;;;6.88;76.40
64841;BME280;51307;52.162;7.560;2024-03-23T08:30:39;100263.44;;;6.97;76.44
64841;BME280;51307;52.162;7.560;2024-03-23T08:33:04;100294.34;;;7.26;75.68
64841;BME280;51307;52.162;7.560;2024-03-23T08:35:30;100283.13;;;7.04;75.75
64841;BME280;51307;52.162;7.560;2024-03-23T08:37:55;100282.66;;;6.63;75.71
64841;BME280;51307;52.162;7.560;2024-03-23T08:40:21;100286.97;;;6.64;75.94
64841;BME280;51307;52.162;7.560;2024-03-23T08:42:47;100286.50;;;7.06;74.21
64841;BME280;51307;52.162;7.560;2024-03-23T08:45:13;100276.16;;;6.76;75.04
64841;BME280;51307;52.162;7.560;2024-03-23T08:47:38;100273.72;;;7.10;75.11
64841;BME280;51307;52.162;7.560;2024-03-23T08:50:04;100277.41;;;6.99;74.85
64841;BME280;51307;52.162;7.560;2024-03-23T08:52:30;100272.06;;;7.09;75.01
64841;BME280;51307;52.162;7.560;2024-03-23T08:54:55;100274.97;;;7.16;75.34
64841;BME280;51307;52.162;7.560;2024-03-23T08:57:22;100273.22;;;6.97;74.38
64841;BME280;51307;52.162;7.560;2024-03-23T08:59:48;100271.59;;;6.96;74.56
64841;BME280;51307;52.162;7.560;2024-03-23T09:02:13;100281.03;;;7.44;73.32
64841;BME280;51307;52.162;7.560;2024-03-23T09:04:39;100266.81;;;7.35;73.19
64841;BME280;51307;52.162;7.560;2024-03-23T09:07:04;100263.47;;;7.33;72.44
64841;BME280;51307;52.162;7.560;2024-03-23T09:09:30;100268.31;;;7.56;71.17
64841;BME280;51307;52.162;7.560;2024-03-23T09:11:55;100268.31;;;7.02;73.36
64841;BME280;51307;52.162;7.560;2024-03-23T09:14:22;100274.03;;;7.07;72.16
64841;BME280;51307;52.162;7.560;2024-03-23T09:16:50;100275.31;;;7.21;71.95
64841;BME280;51307;52.162;7.560;2024-03-23T09:19:17;100266.97;;;7.16;70.44
64841;BME280;51307;52.162;7.560;2024-03-23T09:21:42;100264.97;;;7.54;70.04
64841;BME280;51307;52.162;7.560;2024-03-23T09:24:08;100260.53;;;7.63;69.73
64841;BME280;51307;52.162;7.560;2024-03-23T09:26:33;100257.00;;;7.54;69.80
64841;BME280;51307;52.162;7.560;2024-03-23T09:28:59;100271.66;;;7.04;70.62
64841;BME280;51307;52.162;7.560;2024-03-23T09:31:24;100272.88;;;7.10;67.66
64841;BME280;51307;52.162;7.560;2024-03-23T09:33:50;100260.78;;;6.97;66.26
64841;BME280;51307;52.162;7.560;2024-03-23T09:36:15;100255.63;;;7.32;66.33
64841;BME280;51307;52.162;7.560;2024-03-23T09:38:41;100251.31;;;7.31;65.77
64841;BME280;51307;52.162;7.560;2024-03-23T09:41:08;100255.59;;;7.68;65.23
64841;BME280;51307;52.162;7.560;2024-03-23T09:43:34;100245.38;;;7.55;63.87
64841;BME280;51307;52.162;7.560;2024-03-23T09:45:59;100246.78;;;7.67;63.89
64841;BME280;51307;52.162;7.560;2024-03-23T09:48:27;100242.75;;;7.63;63.39
64841;BME280;51307;52.162;7.560;2024-03-23T09:50:52;100235.97;;;7.69;63.41
64841;BME280;51307;52.162;7.560;2024-03-23T09:53:18;100248.31;;;7.52;63.95
64841;BME280;51307;52.162;7.560;2024-03-23T09:55:44;100242.38;;;8.02;63.58
64841;BME280;51307;52.162;7.560;2024-03-23T09:58:14;100253.63;;;7.96;65.42
64841;BME280;51307;52.162;7.560;2024-03-23T10:00:40;100254.16;;;7.73;66.01
64841;BME280;51307;52.162;7.560;2024-03-23T10:03:06;100252.34;;;7.56;66.07
64841;BME280;51307;52.162;7.560;2024-03-23T10:05:32;100275.84;;;7.24;66.75
64841;BME280;51307;52.162;7.560;2024-03-23T10:08:17;100258.66;;;7.37;67.51
64841;BME280;51307;52.162;7.560;2024-03-23T10:10:45;100257.06;;;7.62;67.29
64841;BME280;51307;52.162;7.560;2024-03-23T10:13:23;100245.38;;;7.55;67.10
64841;BME280;51307;52.162;7.560;2024-03-23T10:15:57;100239.63;;;7.68;66.04
64841;BME280;51307;52.162;7.560;2024-03-23T10:18:23;100242.34;;;7.14;67.69
64841;BME280;51307;52.162;7.560;2024-03-23T10:21:08;100243.63;;;7.10;67.81
64841;BME280;51307;52.162;7.560;2024-03-23T10:23:40;100252.16;;;7.49;67.76
64841;BME280;51307;52.162;7.560;2024-03-23T10:26:12;100235.09;;;7.42;67.86
64841;BME280;51307;52.162;7.560;2024-03-23T10:28:51;100237.22;;;7.38;67.20
64841;BME280;51307;52.162;7.560;2024-03-23T10:31:17;100227.34;;;7.49;66.77
64841;BME280;51307;52.162;7.560;2024-03-23T10:33:49;100227.09;;;7.60;67.13
64841;BME280;51307;52.162;7.560;2024-03-23T10:36:15;100242.09;;;7.43;67.66
64841;BME280;51307;52.162;7.560;2024-03-23T10:38:42;100221.72;;;7.78;66.97
64841;BME280;51307;52.162;7.560;2024-03-23T10:41:09;100221.50;;;7.98;65.78
64841;BME280;51307;52.162;7.560;2024-03-23T10:43:39;100228.03;;;7.77;65.37
64841;BME280;51307;52.162;7.560;2024-03-23T10:46:05;100229.50;;;8.24;63.80
64841;BME280;51307;52.162;7.560;2024-03-23T10:48:32;100222.53;;;8.31;62.63
64841;BME280;51307;52.162;7.560;2024-03-23T10:50:58;100230.88;;;7.75;59.21
64841;BME280;51307;52.162;7.560;2024-03-23T10:53:26;100226.84;;;7.71;56.83
64841;BME280;51307;52.162;7.560;2024-03-23T10:55:54;100232.38;;;7.78;56.29
64841;BME280;51307;52.162;7.560;2024-03-23T10:58:30;100230.44;;;7.62;56.00
64841;BME280;51307;52.162;7.560;2024-03-23T11:00:57;100233.22;;;8.05;55.22
64841;BME280;51307;52.162;7.560;2024-03-23T11:03:34;100215.81;;;7.66;55.30
64841;BME280;51307;52.162;7.560;2024-03-23T11:06:03;100229.13;;;8.19;55.89
64841;BME280;51307;52.162;7.560;2024-03-23T11:08:41;100226.28;;;8.20;55.85
64841;BME280;51307;52.162;7.560;2024-03-23T11:11:18;100229.50;;;7.71;56.62
64841;BME280;51307;52.162;7.560;2024-03-23T11:13:48;100218.59;;;8.44;55.74
64841;BME280;51307;52.162;7.560;2024-03-23T11:16:24;100212.22;;;8.36;55.95
64841;BME280;51307;52.162;7.560;2024-03-23T11:18:51;100210.44;;;8.11;56.68
64841;BME280;51307;52.162;7.560;2024-03-23T11:24:20;100207.16;;;8.17;56.63
64841;BME280;51307;52.162;7.560;2024-03-23T11:26:46;100193.06;;;8.33;58.40
64841;BME280;51307;52.162;7.560;2024-03-23T11:29:15;100199.13;;;8.08;58.36
64841;BME280;51307;52.162;7.560;2024-03-23T11:31:51;100195.13;;;8.64;57.13
64841;BME280;51307;52.162;7.560;2024-03-23T11:34:18;100197.66;;;8.57;56.64
64841;BME280;51307;52.162;7.560;2024-03-23T11:36:44;100184.34;;;8.65;55.55
64841;BME280;51307;52.162;7.560;2024-03-23T11:39:18;100194.75;;;8.42;55.00
64841;BME280;51307;52.162;7.560;2024-03-23T11:41:52;100198.75;;;8.89;54.81
64841;BME280;51307;52.162;7.560;2024-03-23T11:44:22;100187.69;;;8.84;53.90
64841;BME280;51307;52.162;7.560;2024-03-23T11:46:49;100200.47;;;8.64;54.24
64841;BME280;51307;52.162;7.560;2024-03-23T11:49:32;100204.25;;;8.45;54.85
64841;BME280;51307;52.162;7.560;2024-03-23T11:51:58;100210.06;;;8.40;54.80
64841;BME280;51307;52.162;7.560;2024-03-23T11:54:25;100198.13;;;8.61;54.17
64841;BME280;51307;52.162;7.560;2024-03-23T11:57:02;100205.34;;;8.68;51.59
64841;BME280;51307;52.162;7.560;2024-03-23T11:59:32;100196.59;;;8.50;52.21
64841;BME280;51307;52.162;7.560;2024-03-23T12:01:58;100236.91;;;8.38;52.93
64841;BME280;51307;52.162;7.560;2024-03-23T12:04:28;100245.06;;;8.11;59.53
64841;BME280;51307;52.162;7.560;2024-03-23T12:07:18;100266.03;;;6.79;65.41
64841;BME280;51307;52.162;7.560;2024-03-23T12:09:45;100272.16;;;6.24;68.57
64841;BME280;51307;52.162;7.560;2024-03-23T12:14:45;100234.31;;;6.12;68.91
64841;BME280;51307;52.162;7.560;2024-03-23T12:17:25;100228.78;;;6.61;66.54
64841;BME280;51307;52.162;7.560;2024-03-23T12:19:51;100217.25;;;6.43;68.20
64841;BME280;51307;52.162;7.560;2024-03-23T12:22:20;100218.00;;;6.63;69.46
64841;BME280;51307;52.162;7.560;2024-03-23T12:24:48;100207.97;;;7.02;70.69
64841;BME280;51307;52.162;7.560;2024-03-23T12:27:14;100219.41;;;6.85;72.54
64841;BME280;51307;52.162;7.560;2024-03-23T12:29:40;100233.84;;;6.82;70.28
64841;BME280;51307;52.162;7.560;2024-03-23T12:32:08;100240.97;;;6.82;71.10
64841;BME280;51307;52.162;7.560;2024-03-23T12:34:33;100219.06;;;6.98;69.84
64841;BME280;51307;52.162;7.560;2024-03-23T12:36:59;100217.66;;;7.48;67.90
64841;BME280;51307;52.162;7.560;2024-03-23T12:39:25;100218.53;;;7.12;69.18
64841;BME280;51307;52.162;7.560;2024-03-23T12:41:50;100213.94;;;6.86;69.62
64841;BME280;51307;52.162;7.560;2024-03-23T12:44:17;100200.00;;;7.02;69.97
64841;BME280;51307;52.162;7.560;2024-03-23T12:46:43;100213.69;;;7.26;68.35
64841;BME280;51307;52.162;7.560;2024-03-23T12:49:10;100197.25;;;7.12;68.55
64841;BME280;51307;52.162;7.560;2024-03-23T12:51:36;100196.84;;;7.69;68.09
64841;BME280;51307;52.162;7.560;2024-03-23T12:54:02;100193.31;;;7.16;69.27
64841;BME280;51307;52.162;7.560;2024-03-23T12:56:28;100200.97;;;7.19;68.80
64841;BME280;51307;52.162;7.560;2024-03-23T12:58:54;100207.06;;;7.30;69.19
64841;BME280;51307;52.162;7.560;2024-03-23T13:01:25;100211.31;;;7.40;68.50
64841;BME280;51307;52.162;7.560;2024-03-23T13:03:50;100204.38;;;6.94;69.39
64841;BME280;51307;52.162;7.560;2024-03-23T13:06:18;100194.72;;;7.47;70.43
64841;BME280;51307;52.162;7.560;2024-03-23T13:08:45;100198.00;;;7.04;71.84
64841;BME280;51307;52.162;7.560;2024-03-23T13:11:11;100204.41;;;7.56;69.21
64841;BME280;51307;52.162;7.560;2024-03-23T13:13:37;100202.66;;;7.02;69.10
64841;BME280;51307;52.162;7.560;2024-03-23T13:16:04;100211.63;;;7.37;68.31
64841;BME280;51307;52.162;7.560;2024-03-23T13:18:31;100220.97;;;7.23;67.59
64841;BME280;51307;52.162;7.560;2024-03-23T13:20:57;100212.38;;;7.30;67.65
64841;BME280;51307;52.162;7.560;2024-03-23T13:23:24;100203.84;;;7.26;67.64
64841;BME280;51307;52.162;7.560;2024-03-23T13:25:54;100206.44;;;7.18;62.56
64841;BME280;51307;52.162;7.560;2024-03-23T13:28:20;100204.88;;;7.25;63.25
64841;BME280;51307;52.162;7.560;2024-03-23T13:30:56;100224.63;;;7.04;59.29
64841;BME280;51307;52.162;7.560;2024-03-23T13:33:23;100204.19;;;7.67;60.41
64841;BME280;51307;52.162;7.560;2024-03-23T13:35:52;100202.00;;;7.45;58.13
64841;BME280;51307;52.162;7.560;2024-03-23T13:38:18;100199.94;;;8.09;57.61
64841;BME280;51307;52.162;7.560;2024-03-23T13:40:57;100207.25;;;7.54;57.38
64841;BME280;51307;52.162;7.560;2024-03-23T13:43:25;100190.41;;;7.98;57.35
64841;BME280;51307;52.162;7.560;2024-03-23T13:45:58;100206.16;;;7.65;55.32
64841;BME280;51307;52.162;7.560;2024-03-23T13:48:24;100204.13;;;8.12;55.62
64841;BME280;51307;52.162;7.560;2024-03-23T13:51:04;100210.31;;;8.20;55.78
64841;BME280;51307;52.162;7.560;2024-03-23T13:53:30;100229.41;;;8.42;55.43
64841;BME280;51307;52.162;7.560;2024-03-23T13:55:57;100224.94;;;8.85;55.15
64841;BME280;51307;52.162;7.560;2024-03-23T13:58:23;100209.44;;;8.12;55.08